createdAt,value
2019-02-09T00:01:37.768Z,7.47
2019-02-09T00:04:04.632Z,7.97
2019-02-09T00:06:31.822Z,6.63
2019-02-09T00:08:58.883Z,6.57
2019-02-09T00:11:25.650Z,8.43
2019-02-09T00:13:52.503Z,8.23
2019-02-09T00:16:19.325Z,8.37
2019-02-09T00:18:46.182Z,10.60
2019-02-09T00:21:12.947Z,7.70
2019-02-09T00:23:39.930Z,7.47
2019-02-09T00:26:06.782Z,7.33
2019-02-09T00:28:33.921Z,8.03
2019-02-09T00:31:00.903Z,8.97
2019-02-09T00:33:27.766Z,9.27
2019-02-09T00:35:54.622Z,6.30
2019-02-09T00:38:21.456Z,8.13
2019-02-09T00:40:48.204Z,8.23
2019-02-09T00:43:15.258Z,7.50
2019-02-09T00:45:42.699Z,7.87
2019-02-09T00:48:09.545Z,7.93
2019-02-09T00:50:36.709Z,6.47
2019-02-09T00:53:04.111Z,6.63
2019-02-09T00:55:31.182Z,8.30
2019-02-09T00:57:58.219Z,6.57
2019-02-09T01:00:25.417Z,8.10
2019-02-09T01:02:52.178Z,6.47
2019-02-09T01:05:21.496Z,8.33
2019-02-09T01:07:48.456Z,7.20
2019-02-09T01:10:15.449Z,9.20
2019-02-09T01:12:42.311Z,7.90
2019-02-09T01:15:11.646Z,7.33
2019-02-09T01:17:39.195Z,6.80
2019-02-09T01:20:47.865Z,5.33
2019-02-09T01:23:14.905Z,5.87
2019-02-09T01:25:41.643Z,6.73
2019-02-09T01:28:08.431Z,9.57
2019-02-09T01:30:35.561Z,7.23
2019-02-09T01:33:02.391Z,6.93
2019-02-09T01:35:29.242Z,6.07
2019-02-09T01:37:56.070Z,8.33
2019-02-09T01:40:24.118Z,7.27
2019-02-09T01:42:51.116Z,8.47
2019-02-09T01:45:23.233Z,5.00
2019-02-09T01:47:50.055Z,5.87
2019-02-09T01:50:17.559Z,6.80
2019-02-09T01:52:44.397Z,6.10
2019-02-09T01:55:11.548Z,6.37
2019-02-09T01:57:38.794Z,8.23
2019-02-09T02:00:10.834Z,6.40
2019-02-09T02:02:37.867Z,5.90
2019-02-09T02:05:05.075Z,6.87
2019-02-09T02:07:32.090Z,6.63
2019-02-09T02:09:58.835Z,8.93
2019-02-09T02:12:25.546Z,7.20
2019-02-09T02:14:52.276Z,6.60
2019-02-09T02:17:19.001Z,6.73
2019-02-09T02:19:45.888Z,5.93
2019-02-09T02:22:12.980Z,5.80
2019-02-09T02:24:39.711Z,8.13
2019-02-09T02:27:06.571Z,7.10
2019-02-09T02:29:33.596Z,7.43
2019-02-09T02:32:00.436Z,5.67
2019-02-09T02:34:27.728Z,4.90
2019-02-09T02:36:54.827Z,7.40
2019-02-09T02:39:21.575Z,5.93
2019-02-09T02:41:48.721Z,5.50
2019-02-09T02:44:15.554Z,6.70
2019-02-09T02:46:42.556Z,5.83
2019-02-09T02:49:09.455Z,6.67
2019-02-09T02:51:36.079Z,5.27
2019-02-09T02:54:02.943Z,4.97
2019-02-09T02:56:29.841Z,5.00
2019-02-09T02:58:56.667Z,4.70
2019-02-09T03:01:23.304Z,4.77
2019-02-09T03:04:03.286Z,6.23
2019-02-09T03:06:30.028Z,4.57
2019-02-09T03:08:56.758Z,4.63
2019-02-09T03:11:23.664Z,3.93
2019-02-09T03:13:50.713Z,5.40
2019-02-09T03:16:17.581Z,3.67
2019-02-09T03:18:44.382Z,5.03
2019-02-09T03:21:11.124Z,4.87
2019-02-09T03:23:37.757Z,4.33
2019-02-09T03:26:04.707Z,6.57
2019-02-09T03:28:31.443Z,4.93
2019-02-09T03:30:58.176Z,2.80
2019-02-09T03:33:25.174Z,4.33
2019-02-09T03:35:52.192Z,4.60
2019-02-09T03:38:19.060Z,3.50
2019-02-09T03:40:45.880Z,4.93
2019-02-09T03:43:12.713Z,2.53
2019-02-09T03:45:39.448Z,5.87
2019-02-09T03:48:06.453Z,4.13
2019-02-09T03:50:33.372Z,4.57
2019-02-09T03:53:00.357Z,5.10
2019-02-09T03:55:27.516Z,3.37
2019-02-09T03:57:54.344Z,5.20
2019-02-09T04:00:22.898Z,4.37
2019-02-09T04:02:49.928Z,3.30
2019-02-09T04:05:16.980Z,3.23
2019-02-09T04:07:44.027Z,4.33
2019-02-09T04:10:12.610Z,3.77
2019-02-09T04:12:39.392Z,2.83
2019-02-09T04:15:28.091Z,3.90
2019-02-09T04:17:54.954Z,3.87
2019-02-09T04:20:43.303Z,3.23
2019-02-09T04:23:10.148Z,2.60
2019-02-09T04:25:37.007Z,2.43
2019-02-09T04:28:04.291Z,2.80
2019-02-09T04:30:31.181Z,3.10
2019-02-09T04:32:58.445Z,3.40
2019-02-09T04:35:25.595Z,3.27
2019-02-09T04:37:52.804Z,2.30
2019-02-09T04:40:24.354Z,4.03
2019-02-09T04:42:51.289Z,3.67
2019-02-09T04:45:18.153Z,2.77
2019-02-09T04:47:45.006Z,4.03
2019-02-09T04:50:12.818Z,4.40
2019-02-09T04:52:40.235Z,3.27
2019-02-09T04:55:10.775Z,6.43
2019-02-09T04:57:38.259Z,4.90
2019-02-09T05:00:06.917Z,3.33
2019-02-09T05:02:34.429Z,3.33
2019-02-09T05:05:01.649Z,3.43
2019-02-09T05:07:28.818Z,2.53
2019-02-09T05:09:56.208Z,3.57
2019-02-09T05:12:23.780Z,3.70
2019-02-09T05:14:50.925Z,3.60
2019-02-09T05:17:18.042Z,5.70
2019-02-09T05:19:45.268Z,4.73
2019-02-09T05:22:12.364Z,2.70
2019-02-09T05:24:39.496Z,3.40
2019-02-09T05:27:06.664Z,3.87
2019-02-09T05:29:33.934Z,3.47
2019-02-09T05:32:01.049Z,3.43
2019-02-09T05:34:28.393Z,3.07
2019-02-09T05:36:55.826Z,3.57
2019-02-09T05:39:23.239Z,3.30
2019-02-09T05:41:50.479Z,2.83
2019-02-09T05:44:18.008Z,5.77
2019-02-09T05:46:45.148Z,4.30
2019-02-09T05:49:12.396Z,3.33
2019-02-09T05:51:39.513Z,2.50
2019-02-09T05:54:06.829Z,3.37
2019-02-09T05:56:33.998Z,2.80
2019-02-09T05:59:01.636Z,2.93
2019-02-09T06:01:32.374Z,3.37
2019-02-09T06:03:57.934Z,4.40
2019-02-09T06:06:25.081Z,7.67
2019-02-09T06:09:05.037Z,3.93
2019-02-09T06:11:32.328Z,4.80
2019-02-09T06:13:59.433Z,4.80
2019-02-09T06:16:26.719Z,5.70
2019-02-09T06:18:53.796Z,4.53
2019-02-09T06:21:21.378Z,4.17
2019-02-09T06:23:48.621Z,4.03
2019-02-09T06:26:35.247Z,6.43
2019-02-09T06:29:02.375Z,3.93
2019-02-09T06:31:29.467Z,5.20
2019-02-09T06:33:56.589Z,3.53
2019-02-09T06:36:43.366Z,8.10
2019-02-09T06:39:10.194Z,3.57
2019-02-09T06:41:36.998Z,4.83
2019-02-09T06:44:03.881Z,7.10
2019-02-09T06:46:31.121Z,6.07
2019-02-09T06:48:58.136Z,7.50
2019-02-09T06:51:25.030Z,5.23
2019-02-09T06:53:51.923Z,5.53
2019-02-09T06:56:18.661Z,4.97
2019-02-09T06:58:45.459Z,6.00
2019-02-09T07:01:12.387Z,5.83
2019-02-09T07:03:39.124Z,5.50
2019-02-09T07:06:06.365Z,5.63
2019-02-09T07:08:33.220Z,5.50
2019-02-09T07:11:00.135Z,6.30
2019-02-09T07:13:27.329Z,5.87
2019-02-09T07:15:54.551Z,4.53
2019-02-09T07:18:21.294Z,4.17
2019-02-09T07:20:48.960Z,5.77
2019-02-09T07:23:16.002Z,5.60
2019-02-09T07:25:42.888Z,4.37
2019-02-09T07:28:10.130Z,5.90
2019-02-09T07:30:37.025Z,4.13
2019-02-09T07:33:45.144Z,5.50
2019-02-09T07:36:12.253Z,5.70
2019-02-09T07:38:39.368Z,5.13
2019-02-09T07:41:06.576Z,6.07
2019-02-09T07:43:33.691Z,7.07
2019-02-09T07:46:01.142Z,5.03
2019-02-09T07:48:28.346Z,5.17
2019-02-09T07:50:55.480Z,4.60
2019-02-09T07:53:22.587Z,4.53
2019-02-09T07:55:49.777Z,4.60
2019-02-09T07:58:17.330Z,5.37
2019-02-09T08:00:44.462Z,5.33
2019-02-09T08:03:11.673Z,5.73
2019-02-09T08:05:39.180Z,5.83
2019-02-09T08:08:06.263Z,6.27
2019-02-09T08:10:33.584Z,6.97
2019-02-09T08:16:08.947Z,7.03
2019-02-09T08:18:36.408Z,5.13
2019-02-09T08:21:03.703Z,6.03
2019-02-09T08:23:30.889Z,6.20
2019-02-09T08:25:57.977Z,5.83
2019-02-09T08:28:25.104Z,5.50
2019-02-09T08:30:52.279Z,5.27
2019-02-09T08:33:19.415Z,7.57
2019-02-09T08:35:47.583Z,5.67
2019-02-09T08:38:15.246Z,7.73
2019-02-09T08:40:42.396Z,5.30
2019-02-09T08:43:09.606Z,6.57
2019-02-09T08:45:36.786Z,4.67
2019-02-09T08:48:44.738Z,4.60
2019-02-09T08:51:13.124Z,5.37
2019-02-09T08:53:40.342Z,6.03
2019-02-09T08:56:07.443Z,3.80
2019-02-09T08:58:34.862Z,3.33
2019-02-09T09:01:02.018Z,4.90
2019-02-09T09:03:29.090Z,4.37
2019-02-09T09:05:56.544Z,3.53
2019-02-09T09:08:23.662Z,4.33
2019-02-09T09:10:50.979Z,4.90
2019-02-09T09:13:18.214Z,6.17
2019-02-09T09:15:50.890Z,4.23
2019-02-09T09:18:17.984Z,4.03
2019-02-09T09:21:05.907Z,3.90
2019-02-09T09:23:33.049Z,4.13
2019-02-09T09:26:00.457Z,5.87
2019-02-09T09:28:27.898Z,6.33
2019-02-09T09:30:55.014Z,4.60
2019-02-09T09:33:22.108Z,4.27
2019-02-09T09:35:49.287Z,3.07
2019-02-09T09:38:16.393Z,2.30
2019-02-09T09:40:44.346Z,2.87
2019-02-09T09:43:12.043Z,3.93
2019-02-09T09:45:39.277Z,3.30
2019-02-09T09:48:08.225Z,3.83
2019-02-09T09:50:35.506Z,4.20
2019-02-09T09:53:02.632Z,4.30
2019-02-09T09:55:30.096Z,2.53
2019-02-09T09:57:57.372Z,3.97
2019-02-09T10:00:24.753Z,3.30
2019-02-09T10:02:51.869Z,3.07
2019-02-09T10:05:19.363Z,4.40
2019-02-09T10:07:46.474Z,2.73
2019-02-09T10:10:33.586Z,2.27
2019-02-09T10:13:00.708Z,5.00
2019-02-09T10:15:27.823Z,4.53
2019-02-09T10:17:55.256Z,3.80
2019-02-09T10:20:23.275Z,2.57
2019-02-09T10:23:11.741Z,2.57
2019-02-09T10:25:39.236Z,2.40
2019-02-09T10:28:06.439Z,3.67
2019-02-09T10:30:33.974Z,3.07
2019-02-09T10:33:01.598Z,3.53
2019-02-09T10:35:28.684Z,1.23
2019-02-09T10:37:55.899Z,2.77
2019-02-09T10:40:25.038Z,1.77
2019-02-09T10:42:52.852Z,4.23
2019-02-09T10:45:21.742Z,3.83
2019-02-09T10:47:48.854Z,4.10
2019-02-09T10:50:36.539Z,2.57
2019-02-09T10:53:04.281Z,3.90
2019-02-09T10:55:31.380Z,3.10
2019-02-09T10:57:59.093Z,3.13
2019-02-09T11:00:28.985Z,2.17
2019-02-09T11:02:56.100Z,2.63
2019-02-09T11:05:23.429Z,2.43
2019-02-09T11:07:50.527Z,3.10
2019-02-09T11:10:18.026Z,3.60
2019-02-09T11:12:45.682Z,2.87
2019-02-09T11:15:14.629Z,3.77
2019-02-09T11:17:41.847Z,2.00
2019-02-09T11:20:11.333Z,1.43
2019-02-09T11:22:38.429Z,2.90
2019-02-09T11:25:06.737Z,2.10
2019-02-09T11:27:33.921Z,3.20
2019-02-09T11:30:01.501Z,5.90
2019-02-09T11:32:28.627Z,2.83
2019-02-09T11:34:55.819Z,1.70
2019-02-09T11:37:22.934Z,3.23
2019-02-09T11:39:50.465Z,2.93
2019-02-09T11:42:17.755Z,2.93
2019-02-09T11:44:45.182Z,3.47
2019-02-09T11:47:12.353Z,1.00
2019-02-09T11:49:39.884Z,3.47
2019-02-09T11:52:07.928Z,2.03
2019-02-09T11:54:36.521Z,3.40
2019-02-09T11:57:03.704Z,2.27
2019-02-09T11:59:31.216Z,2.90
2019-02-09T12:01:58.871Z,2.17
2019-02-09T12:04:26.127Z,1.87
2019-02-09T12:06:53.583Z,3.23
2019-02-09T12:09:20.697Z,2.63
2019-02-09T12:11:47.868Z,2.60
2019-02-09T12:14:14.976Z,2.03
2019-02-09T12:16:42.429Z,3.23
2019-02-09T12:19:09.693Z,2.00
2019-02-09T12:21:36.908Z,2.73
2019-02-09T12:24:04.114Z,1.63
2019-02-09T12:26:31.744Z,3.13
2019-02-09T12:28:58.848Z,3.60
2019-02-09T12:31:25.966Z,1.77
2019-02-09T12:33:53.604Z,2.80
2019-02-09T12:36:20.729Z,3.53
2019-02-09T12:38:48.232Z,3.37
2019-02-09T12:41:15.417Z,3.40
2019-02-09T12:43:42.491Z,2.43
2019-02-09T12:46:09.582Z,2.87
2019-02-09T12:48:36.777Z,1.57
2019-02-09T12:51:04.016Z,3.07
2019-02-09T12:53:31.346Z,4.37
2019-02-09T12:55:58.584Z,3.10
2019-02-09T12:58:26.119Z,2.40
2019-02-09T13:00:53.209Z,2.43
2019-02-09T13:03:30.701Z,4.80
2019-02-09T13:05:51.794Z,2.37
2019-02-09T13:08:18.908Z,3.27
2019-02-09T13:10:46.145Z,3.47
2019-02-09T13:13:13.256Z,4.07
2019-02-09T13:15:40.365Z,3.10
2019-02-09T13:18:07.589Z,4.37
2019-02-09T13:20:34.702Z,2.83
2019-02-09T13:23:14.246Z,3.10
2019-02-09T13:25:41.340Z,4.40
2019-02-09T13:28:08.461Z,3.73
2019-02-09T13:33:38.635Z,3.33
2019-02-09T13:35:59.940Z,4.43
2019-02-09T13:38:27.041Z,5.67
2019-02-09T13:40:54.214Z,5.97
2019-02-09T13:43:21.363Z,6.10
2019-02-09T13:45:50.273Z,2.83
2019-02-09T13:48:17.420Z,4.17
2019-02-09T13:50:44.536Z,3.07
2019-02-09T13:53:11.827Z,4.23
2019-02-09T13:55:39.317Z,4.07
2019-02-09T13:58:06.522Z,2.23
2019-02-09T14:00:33.742Z,2.17
2019-02-09T14:03:00.923Z,1.77
2019-02-09T14:05:28.069Z,3.73
2019-02-09T14:07:55.216Z,2.97
2019-02-09T14:11:03.444Z,3.80
2019-02-09T14:13:30.927Z,4.53
2019-02-09T14:15:58.051Z,3.00
2019-02-09T14:18:25.255Z,4.13
2019-02-09T14:20:52.325Z,3.47
2019-02-09T14:23:19.476Z,3.00
2019-02-09T14:25:47.598Z,3.87
2019-02-09T14:28:14.952Z,4.97
2019-02-09T14:30:42.100Z,4.33
2019-02-09T14:33:09.435Z,3.57
2019-02-09T14:36:18.679Z,3.67
2019-02-09T14:38:46.258Z,2.90
2019-02-09T14:41:13.358Z,4.10
2019-02-09T14:43:40.457Z,2.83
2019-02-09T14:46:07.715Z,6.37
2019-02-09T14:48:35.162Z,5.77
2019-02-09T14:51:02.252Z,3.23
2019-02-09T14:53:29.982Z,4.00
2019-02-09T14:55:57.123Z,4.97
2019-02-09T14:58:24.213Z,4.43
2019-02-09T15:00:52.351Z,4.17
2019-02-09T15:03:26.290Z,3.63
2019-02-09T15:05:48.819Z,4.97
2019-02-09T15:08:15.933Z,9.43
2019-02-09T15:10:43.034Z,4.07
2019-02-09T15:13:12.158Z,3.50
2019-02-09T15:15:46.994Z,4.07
2019-02-09T15:18:14.259Z,5.20
2019-02-09T15:21:01.162Z,3.13
2019-02-09T15:23:28.487Z,6.57
2019-02-09T15:25:55.623Z,5.07
2019-02-09T15:28:22.888Z,2.57
2019-02-09T15:30:50.044Z,3.80
2019-02-09T15:33:17.310Z,3.73
2019-02-09T15:35:45.409Z,3.43
2019-02-09T15:38:13.075Z,5.37
2019-02-09T15:40:40.216Z,4.47
2019-02-09T15:43:07.605Z,3.30
2019-02-09T15:45:34.708Z,3.83
2019-02-09T15:48:01.809Z,3.00
2019-02-09T15:50:29.373Z,5.17
2019-02-09T15:52:56.516Z,4.97
2019-02-09T15:55:23.729Z,6.70
2019-02-09T15:57:50.897Z,4.20
2019-02-09T16:00:37.500Z,8.57
2019-02-09T16:03:05.041Z,4.17
2019-02-09T16:05:32.169Z,4.87
2019-02-09T16:08:00.472Z,5.40
2019-02-09T16:10:28.604Z,5.77
2019-02-09T16:12:56.749Z,5.70
2019-02-09T16:15:25.102Z,6.93
2019-02-09T16:17:52.273Z,4.53
2019-02-09T16:20:20.393Z,5.43
2019-02-09T16:22:47.489Z,5.77
2019-02-09T16:25:15.182Z,6.53
2019-02-09T16:27:42.363Z,5.57
2019-02-09T16:30:22.240Z,4.40
2019-02-09T16:32:49.525Z,5.73
2019-02-09T16:35:17.672Z,7.33
2019-02-09T16:37:45.166Z,5.80
2019-02-09T16:40:54.558Z,5.83
2019-02-09T16:43:21.699Z,6.87
2019-02-09T16:45:48.894Z,4.10
2019-02-09T16:48:15.851Z,5.87
2019-02-09T16:50:42.871Z,4.30
2019-02-09T16:53:09.988Z,7.00
2019-02-09T16:55:36.867Z,4.93
2019-02-09T16:58:46.148Z,4.57
2019-02-09T17:01:15.734Z,5.07
2019-02-09T17:03:43.939Z,7.53
2019-02-09T17:06:13.145Z,3.97
2019-02-09T17:08:41.139Z,5.07
2019-02-09T17:11:09.271Z,4.27
2019-02-09T17:13:37.979Z,4.77
2019-02-09T17:16:05.651Z,8.07
2019-02-09T17:18:34.359Z,8.10
2019-02-09T17:21:02.644Z,5.77
2019-02-09T17:23:32.334Z,7.67
2019-02-09T17:25:59.790Z,5.87
2019-02-09T17:28:27.912Z,4.97
2019-02-09T17:31:07.494Z,6.37
2019-02-09T17:33:35.061Z,5.80
2019-02-09T17:36:02.169Z,4.00
2019-02-09T17:38:29.317Z,5.77
2019-02-09T17:40:56.625Z,8.57
2019-02-09T17:43:24.090Z,5.30
2019-02-09T17:45:55.155Z,4.03
2019-02-09T17:48:25.081Z,9.87
2019-02-09T17:51:15.919Z,6.70
2019-02-09T17:54:03.934Z,5.67
2019-02-09T17:56:32.654Z,6.93
2019-02-09T17:59:00.411Z,5.67
2019-02-09T18:01:27.581Z,6.87
2019-02-09T18:03:54.696Z,6.90
2019-02-09T18:06:42.460Z,9.33
2019-02-09T18:09:12.795Z,7.90
2019-02-09T18:11:40.518Z,4.97
2019-02-09T18:14:27.975Z,5.20
2019-02-09T18:17:15.389Z,4.57
2019-02-09T18:20:25.760Z,7.53
2019-02-09T18:22:53.130Z,6.17
2019-02-09T18:25:20.773Z,6.00
2019-02-09T18:27:47.923Z,7.60
2019-02-09T18:30:34.482Z,8.00
2019-02-09T18:33:14.777Z,5.87
2019-02-09T18:36:02.768Z,7.00
2019-02-09T18:38:49.569Z,5.27
2019-02-09T18:41:17.503Z,7.67
2019-02-09T18:44:06.064Z,5.13
2019-02-09T18:46:34.147Z,5.60
2019-02-09T18:49:20.955Z,7.23
2019-02-09T18:51:49.425Z,7.63
2019-02-09T18:54:16.159Z,6.43
2019-02-09T18:56:43.206Z,5.50
2019-02-09T18:59:10.231Z,7.30
2019-02-09T19:01:36.972Z,8.53
2019-02-09T19:04:03.815Z,5.73
2019-02-09T19:06:31.379Z,5.77
2019-02-09T19:08:59.417Z,8.90
2019-02-09T19:11:27.839Z,4.60
2019-02-09T19:14:14.955Z,5.30
2019-02-09T19:16:42.937Z,6.07
2019-02-09T19:19:11.027Z,6.47
2019-02-09T19:21:38.480Z,8.50
2019-02-09T19:24:07.371Z,5.40
2019-02-09T19:26:36.387Z,7.63
2019-02-09T19:29:05.173Z,6.57
2019-02-09T19:31:33.676Z,6.93
2019-02-09T19:34:01.634Z,6.20
2019-02-09T19:36:31.795Z,10.50
2019-02-09T19:38:59.393Z,7.13
2019-02-09T19:41:26.505Z,8.27
2019-02-09T19:43:53.625Z,5.70
2019-02-09T19:46:20.973Z,5.03
2019-02-09T19:48:48.077Z,5.03
2019-02-09T19:51:15.172Z,6.90
2019-02-09T19:53:42.337Z,8.07
2019-02-09T19:56:09.428Z,5.23
2019-02-09T19:58:37.290Z,6.00
2019-02-09T20:01:05.188Z,8.50
2019-02-09T20:03:32.288Z,6.23
2019-02-09T20:05:59.365Z,6.93
2019-02-09T20:08:26.887Z,7.57
2019-02-09T20:10:54.478Z,7.67
2019-02-09T20:13:21.626Z,6.07
2019-02-09T20:15:48.851Z,7.30
2019-02-09T20:18:35.385Z,5.73
2019-02-09T20:21:02.878Z,7.60
2019-02-09T20:23:29.974Z,4.40
2019-02-09T20:25:57.241Z,4.50
2019-02-09T20:28:24.762Z,5.17
2019-02-09T20:30:52.212Z,7.13
2019-02-09T20:33:19.316Z,6.70
2019-02-09T20:35:46.935Z,7.70
2019-02-09T20:38:14.041Z,5.93
2019-02-09T20:40:44.005Z,5.97
2019-02-09T20:43:13.396Z,6.40
2019-02-09T20:45:40.496Z,5.07
2019-02-09T20:48:08.113Z,5.50
2019-02-09T20:50:35.551Z,7.63
2019-02-09T20:53:02.753Z,7.17
2019-02-09T20:55:29.862Z,5.93
2019-02-09T20:57:57.057Z,5.20
2019-02-09T21:00:24.825Z,5.77
2019-02-09T21:02:51.906Z,5.23
2019-02-09T21:05:59.902Z,7.20
2019-02-09T21:08:27.227Z,7.43
2019-02-09T21:10:54.632Z,8.47
2019-02-09T21:13:21.798Z,13.83
2019-02-09T21:15:48.928Z,9.10
2019-02-09T21:18:16.061Z,6.10
2019-02-09T21:20:43.236Z,5.83
2019-02-09T21:23:10.757Z,4.93
2019-02-09T21:25:39.687Z,7.57
2019-02-09T21:28:06.846Z,8.03
2019-02-09T21:30:33.987Z,4.97
2019-02-09T21:33:01.079Z,7.40
2019-02-09T21:35:28.517Z,7.43
2019-02-09T21:38:09.224Z,9.73
2019-02-09T21:40:36.731Z,6.00
2019-02-09T21:43:04.280Z,8.37
2019-02-09T21:45:31.670Z,6.83
2019-02-09T21:47:58.827Z,7.67
2019-02-09T21:50:28.459Z,3.57
2019-02-09T21:56:05.558Z,4.97
2019-02-09T21:58:33.062Z,4.87
2019-02-09T22:01:00.150Z,9.50
2019-02-09T22:03:27.319Z,8.73
2019-02-09T22:05:54.633Z,6.40
2019-02-09T22:08:21.728Z,6.63
2019-02-09T22:10:48.943Z,7.70
2019-02-09T22:13:16.036Z,6.37
2019-02-09T22:15:43.196Z,7.60
2019-02-09T22:18:11.093Z,6.97
2019-02-09T22:20:38.192Z,5.63
2019-02-09T22:23:05.449Z,6.93
2019-02-09T22:25:32.663Z,6.73
2019-02-09T22:27:59.756Z,6.07
2019-02-09T22:30:27.617Z,6.13
2019-02-09T22:32:55.445Z,10.50
2019-02-09T22:35:22.608Z,4.77
2019-02-09T22:37:49.692Z,5.43
2019-02-09T22:40:19.098Z,4.93
2019-02-09T22:42:46.242Z,4.63
2019-02-09T22:45:14.464Z,6.03
2019-02-09T22:47:41.672Z,5.10
2019-02-09T22:50:18.968Z,7.13
2019-02-09T22:52:43.202Z,4.27
2019-02-09T22:55:11.669Z,6.23
2019-02-09T22:57:39.095Z,10.77
2019-02-09T23:03:49.455Z,8.90
2019-02-09T23:06:55.857Z,8.40
2019-02-09T23:09:25.026Z,6.73
2019-02-09T23:11:51.767Z,7.30
2019-02-09T23:14:19.509Z,9.30
2019-02-09T23:16:46.596Z,6.70
2019-02-09T23:19:14.235Z,5.23
2019-02-09T23:21:41.189Z,6.23
2019-02-09T23:24:08.932Z,8.33
2019-02-09T23:26:36.310Z,6.97
2019-02-09T23:29:03.528Z,7.77
2019-02-09T23:31:30.448Z,9.87
2019-02-09T23:33:57.584Z,8.40
2019-02-09T23:36:24.748Z,11.60
2019-02-09T23:38:52.033Z,7.17
2019-02-09T23:41:18.888Z,7.67
2019-02-09T23:43:46.215Z,8.17
2019-02-09T23:46:13.743Z,7.70
2019-02-09T23:48:41.082Z,7.97
2019-02-09T23:51:08.173Z,4.87
2019-02-09T23:53:34.976Z,6.40
2019-02-09T23:56:01.704Z,11.13
2019-02-09T23:58:28.802Z,6.47
